Time;durP1;ratioP1;P1;durP2;ratioP2;P2;SDS_P1;SDS_P2;PMS_P1;PMS_P2;Temp;Humidity;BMP_temperature;BMP_pressure;BME280_temperature;BME280_humidity;BME280_pressure;Samples;Min_cycle;Max_cycle;Signal;HPM_P1;HPM_P2
2021/05/24 00:01:21;;;;;;;21.52;6.22;;;21.00;73.00;;;;;;5034200;28;20112;-70
2021/05/24 00:03:47;;;;;;;23.63;7.13;;;21.00;73.10;;;;;;5035531;28;20033;-68
2021/05/24 00:06:12;;;;;;;19.23;6.55;;;21.00;72.90;;;;;;5035838;28;20014;-69
2021/05/24 00:08:38;;;;;;;21.73;6.78;;;21.00;73.10;;;;;;5034779;28;20041;-69
2021/05/24 00:11:06;;;;;;;20.90;6.25;;;21.00;72.80;;;;;;5035443;28;20021;-69
2021/05/24 00:13:31;;;;;;;22.17;6.53;;;21.00;72.90;;;;;;5035338;28;20025;-69
2021/05/24 00:15:57;;;;;;;23.23;6.13;;;21.00;72.90;;;;;;5035240;28;20021;-68
2021/05/24 00:18:23;;;;;;;21.42;6.07;;;21.00;73.00;;;;;;5034965;28;20057;-70
2021/05/24 00:20:55;;;;;;;19.10;6.22;;;20.90;73.30;;;;;;5033866;28;20030;-69
2021/05/24 00:23:22;;;;;;;20.27;6.38;;;20.90;73.20;;;;;;5035095;28;20026;-70
2021/05/24 00:25:48;;;;;;;21.63;6.20;;;21.00;73.10;;;;;;5035108;28;20049;-69
2021/05/24 00:28:14;;;;;;;21.75;6.75;;;21.00;73.10;;;;;;5034942;28;20033;-69
2021/05/24 00:30:46;;;;;;;20.13;6.13;;;21.00;72.80;;;;;;5035341;28;20076;-69
2021/05/24 00:33:13;;;;;;;26.00;6.75;;;21.00;72.70;;;;;;5035055;28;20044;-68
2021/05/24 00:35:39;;;;;;;25.42;6.65;;;21.00;72.80;;;;;;5034990;28;20040;-70
2021/05/24 00:38:06;;;;;;;17.95;6.03;;;20.90;72.70;;;;;;5034869;28;20057;-69
2021/05/24 00:40:34;;;;;;;21.50;6.82;;;20.90;72.70;;;;;;5034998;28;20033;-68
2021/05/24 00:43:01;;;;;;;27.40;7.38;;;20.90;72.70;;;;;;5035246;28;20022;-68
2021/05/24 00:45:27;;;;;;;18.45;6.47;;;20.80;72.70;;;;;;5034996;28;20048;-70
2021/05/24 00:47:54;;;;;;;22.65;6.75;;;20.80;73.00;;;;;;5034690;28;20018;-69
2021/05/24 00:50:20;;;;;;;24.30;7.07;;;20.90;72.70;;;;;;5033491;28;20025;-70
2021/05/24 00:52:46;;;;;;;20.48;6.50;;;20.80;72.70;;;;;;5034762;28;20028;-68
2021/05/24 00:55:13;;;;;;;19.00;5.95;;;20.80;73.00;;;;;;5033344;28;20379;-68
2021/05/24 00:57:39;;;;;;;23.45;6.28;;;20.70;73.00;;;;;;5034488;28;20511;-69
2021/05/24 01:00:15;;;;;;;21.80;6.28;;;20.70;73.30;;;;;;5034372;28;20037;-69
2021/05/24 01:02:41;;;;;;;26.17;6.82;;;20.70;73.20;;;;;;5033296;28;20168;-68
2021/05/24 01:05:07;;;;;;;20.00;6.78;;;20.70;73.80;;;;;;5034385;28;20068;-68
2021/05/24 01:07:33;;;;;;;19.48;6.05;;;20.80;73.60;;;;;;5034232;28;20022;-68
2021/05/24 01:09:59;;;;;;;16.75;5.47;;;20.70;72.90;;;;;;5034413;28;20025;-70
2021/05/24 01:12:25;;;;;;;20.20;6.28;;;20.80;73.20;;;;;;5034384;28;20025;-69
2021/05/24 01:14:51;;;;;;;20.30;6.68;;;20.80;72.90;;;;;;5034253;28;20370;-69
2021/05/24 01:17:16;;;;;;;19.80;7.18;;;20.80;73.10;;;;;;5034100;28;20046;-70
2021/05/24 01:19:47;;;;;;;20.60;7.30;;;20.80;73.80;;;;;;5033247;28;20035;-71
2021/05/24 01:22:21;;;;;;;22.55;7.85;;;20.80;73.90;;;;;;5034084;28;20029;-71
2021/05/24 01:24:48;;;;;;;21.20;7.40;;;20.90;73.00;;;;;;5034100;28;20040;-68
2021/05/24 01:27:14;;;;;;;28.50;7.55;;;20.80;73.10;;;;;;5034434;28;20029;-68
2021/05/24 01:29:40;;;;;;;18.92;6.30;;;20.70;73.40;;;;;;5032856;28;20056;-69
2021/05/24 01:32:06;;;;;;;23.27;8.38;;;20.70;73.50;;;;;;5034072;28;20068;-69
2021/05/24 01:34:33;;;;;;;23.02;7.93;;;20.70;74.40;;;;;;5034070;28;20442;-70
2021/05/24 01:37:00;;;;;;;20.35;7.07;;;20.70;73.70;;;;;;5033848;28;20025;-68
2021/05/24 01:39:27;;;;;;;22.23;8.15;;;20.70;73.90;;;;;;5034213;28;20116;-68
2021/05/24 01:41:53;;;;;;;26.83;8.85;;;20.80;74.10;;;;;;5033743;28;20439;-68
2021/05/24 01:44:31;;;;;;;22.13;8.57;;;20.80;74.40;;;;;;5033838;28;20040;-69
2021/05/24 01:46:57;;;;;;;24.67;9.15;;;20.70;74.30;;;;;;5033819;28;20025;-68
2021/05/24 01:49:23;;;;;;;28.02;8.75;;;20.70;74.50;;;;;;5033782;28;20028;-68
2021/05/24 01:51:49;;;;;;;22.83;8.95;;;20.70;74.60;;;;;;5033850;28;20022;-69
2021/05/24 01:54:15;;;;;;;23.15;8.43;;;20.60;74.90;;;;;;5033537;28;20070;-69
2021/05/24 01:56:42;;;;;;;21.35;8.48;;;20.60;75.10;;;;;;5033550;28;20036;-70
2021/05/24 01:59:08;;;;;;;23.63;8.95;;;20.60;75.40;;;;;;5032193;28;20105;-68
2021/05/24 02:01:34;;;;;;;20.70;8.10;;;20.60;75.30;;;;;;5033437;28;20482;-69
2021/05/24 02:04:00;;;;;;;28.92;9.25;;;20.50;75.90;;;;;;5032130;28;20025;-69
2021/05/24 02:06:26;;;;;;;21.20;8.40;;;20.50;75.70;;;;;;5033400;28;20147;-68
2021/05/24 02:08:52;;;;;;;24.67;8.05;;;20.60;75.90;;;;;;5033263;28;20421;-70
2021/05/24 02:11:18;;;;;;;21.17;7.60;;;20.60;76.00;;;;;;5033353;28;20509;-69
2021/05/24 02:13:46;;;;;;;22.67;8.13;;;20.60;75.70;;;;;;5033380;28;20026;-71
2021/05/24 02:16:12;;;;;;;19.70;8.18;;;20.60;75.70;;;;;;5032251;28;20539;-70
2021/05/24 02:18:38;;;;;;;25.80;8.55;;;20.50;76.00;;;;;;5033098;28;20045;-69
2021/05/24 02:21:06;;;;;;;25.55;8.25;;;20.60;76.10;;;;;;5033584;28;20022;-71
2021/05/24 02:23:32;;;;;;;24.27;7.82;;;20.50;76.20;;;;;;5033905;28;20053;-70
2021/05/24 02:25:58;;;;;;;21.08;7.70;;;20.50;76.10;;;;;;5033858;28;20022;-69
2021/05/24 02:28:24;;;;;;;23.15;7.72;;;20.50;76.10;;;;;;5033110;28;20461;-69
2021/05/24 02:30:49;;;;;;;18.58;7.47;;;20.60;76.40;;;;;;5033019;28;20533;-69
2021/05/24 02:33:15;;;;;;;22.63;8.48;;;20.50;76.30;;;;;;5033203;28;20025;-68
2021/05/24 02:35:41;;;;;;;31.70;8.45;;;20.50;76.00;;;;;;5032893;28;20528;-68
2021/05/24 02:38:07;;;;;;;24.92;8.73;;;20.50;76.10;;;;;;5032894;28;20029;-68
2021/05/24 02:40:33;;;;;;;23.42;7.75;;;20.50;76.30;;;;;;5033232;28;20037;-69
2021/05/24 02:42:59;;;;;;;23.13;8.23;;;20.50;76.30;;;;;;5033105;28;20491;-70
2021/05/24 02:45:25;;;;;;;24.52;8.73;;;20.50;76.80;;;;;;5033112;28;20023;-70
2021/05/24 02:47:51;;;;;;;23.70;8.15;;;20.40;76.80;;;;;;5032949;28;20112;-71
2021/05/24 02:50:20;;;;;;;22.55;8.20;;;20.40;76.90;;;;;;5032895;28;20462;-70
2021/05/24 02:52:46;;;;;;;25.08;8.85;;;20.30;76.90;;;;;;5032770;28;20036;-71
2021/05/24 02:55:13;;;;;;;25.35;8.43;;;20.30;77.50;;;;;;5032934;28;20371;-69
2021/05/24 02:57:39;;;;;;;27.15;8.70;;;20.30;77.40;;;;;;5032673;28;20025;-70
2021/05/24 03:00:06;;;;;;;25.35;9.75;;;20.20;77.60;;;;;;5032862;28;20064;-69
2021/05/24 03:02:32;;;;;;;28.55;9.65;;;20.10;78.00;;;;;;5032704;28;20068;-69
2021/05/24 03:04:57;;;;;;;27.17;8.88;;;20.10;77.90;;;;;;5032966;28;20033;-69
2021/05/24 03:07:23;;;;;;;24.52;9.18;;;20.20;78.00;;;;;;5032586;28;20125;-69
2021/05/24 03:09:49;;;;;;;26.00;9.48;;;20.20;77.90;;;;;;5032928;28;20034;-69
2021/05/24 03:12:15;;;;;;;29.13;8.90;;;20.20;78.20;;;;;;5032894;28;20021;-69
2021/05/24 03:14:41;;;;;;;28.63;9.90;;;20.20;78.50;;;;;;5032678;28;20056;-69
2021/05/24 03:17:07;;;;;;;31.05;9.43;;;20.20;78.70;;;;;;5032491;28;20475;-70
2021/05/24 03:19:32;;;;;;;24.70;9.80;;;20.10;78.90;;;;;;5032484;28;20053;-70
2021/05/24 03:21:58;;;;;;;31.27;9.75;;;20.20;78.70;;;;;;5032567;28;20083;-68
2021/05/24 03:24:24;;;;;;;22.90;9.43;;;20.20;78.50;;;;;;5032810;28;20108;-69
2021/05/24 03:26:50;;;;;;;32.85;11.38;;;20.20;78.50;;;;;;5032482;28;20021;-69
2021/05/24 03:29:16;;;;;;;29.63;9.95;;;20.20;78.40;;;;;;5032686;28;20033;-69
2021/05/24 03:31:41;;;;;;;29.75;10.10;;;20.10;78.60;;;;;;5032626;28;20021;-69
2021/05/24 03:34:07;;;;;;;31.23;11.13;;;20.00;79.00;;;;;;5031196;28;20036;-69
2021/05/24 03:36:33;;;;;;;28.00;10.80;;;19.90;79.60;;;;;;5032413;28;20382;-70
2021/05/24 03:38:59;;;;;;;38.08;11.30;;;19.80;79.50;;;;;;5032348;28;20045;-70
2021/05/24 03:41:24;;;;;;;28.17;9.60;;;19.80;79.60;;;;;;5032359;28;20104;-69
2021/05/24 03:43:50;;;;;;;22.13;9.05;;;19.80;79.60;;;;;;5035393;28;20446;-70
2021/05/24 03:46:16;;;;;;;28.92;9.43;;;19.80;79.80;;;;;;5035845;28;20026;-70
2021/05/24 03:48:42;;;;;;;24.92;8.80;;;19.90;79.60;;;;;;5036272;28;20075;-69
2021/05/24 03:51:09;;;;;;;24.38;8.63;;;20.00;79.40;;;;;;5035798;28;20109;-72
2021/05/24 03:53:35;;;;;;;20.92;7.75;;;20.00;78.70;;;;;;5034621;28;20499;-69
2021/05/24 03:56:02;;;;;;;22.92;7.57;;;20.10;78.60;;;;;;5035824;28;20029;-70
2021/05/24 03:58:28;;;;;;;26.90;7.47;;;20.10;78.10;;;;;;5035733;28;20033;-70
2021/05/24 04:00:54;;;;;;;27.13;6.95;;;20.10;78.00;;;;;;5034400;28;20040;-71
2021/05/24 04:03:20;;;;;;;18.05;5.90;;;20.20;77.70;;;;;;5035323;28;20394;-71
2021/05/24 04:05:48;;;;;;;21.63;6.72;;;20.30;77.20;;;;;;5035553;28;20044;-69
2021/05/24 04:08:14;;;;;;;20.88;6.72;;;20.30;76.60;;;;;;5035381;28;20463;-70
2021/05/24 04:10:52;;;;;;;19.45;6.53;;;20.30;76.50;;;;;;5035454;28;20108;-70
2021/05/24 04:13:18;;;;;;;20.48;6.40;;;20.40;76.20;;;;;;5035053;28;20029;-70
2021/05/24 04:15:47;;;;;;;18.33;5.82;;;20.40;76.00;;;;;;5035416;28;20022;-70
2021/05/24 04:18:16;;;;;;;20.45;6.15;;;20.40;75.70;;;;;;5033685;28;20080;-72
2021/05/24 04:20:44;;;;;;;18.05;5.85;;;20.40;75.60;;;;;;5035391;28;20112;-71
2021/05/24 04:23:09;;;;;;;19.55;6.40;;;20.40;75.10;;;;;;5035316;28;20021;-70
2021/05/24 04:25:35;;;;;;;19.60;5.93;;;20.50;74.90;;;;;;5035238;28;20108;-69
2021/05/24 04:28:02;;;;;;;21.45;5.72;;;20.50;74.70;;;;;;5035346;28;20022;-68
2021/05/24 04:30:28;;;;;;;16.63;5.88;;;20.50;74.70;;;;;;5035365;28;20139;-70
2021/05/24 04:32:54;;;;;;;17.58;5.13;;;20.60;74.40;;;;;;5035225;28;20059;-70
2021/05/24 04:35:19;;;;;;;14.90;5.25;;;20.60;74.20;;;;;;5035191;28;20036;-70
2021/05/24 04:37:45;;;;;;;15.50;5.55;;;20.60;74.30;;;;;;5033769;28;20018;-71
2021/05/24 04:40:11;;;;;;;18.45;5.93;;;20.50;73.80;;;;;;5033439;28;20041;-73
2021/05/24 04:42:38;;;;;;;16.05;5.93;;;20.50;74.00;;;;;;5035200;28;20473;-72
2021/05/24 04:45:04;;;;;;;19.15;5.45;;;20.60;73.40;;;;;;5033592;28;20026;-70
2021/05/24 04:47:30;;;;;;;18.85;5.75;;;20.60;73.60;;;;;;5034648;28;20022;-70
2021/05/24 04:49:56;;;;;;;21.67;6.60;;;20.70;73.10;;;;;;5034688;28;20100;-72
2021/05/24 04:52:22;;;;;;;22.73;5.90;;;20.90;72.90;;;;;;5034745;28;20100;-71
2021/05/24 04:54:48;;;;;;;18.27;6.20;;;21.00;72.60;;;;;;5034709;28;20029;-72
2021/05/24 04:57:14;;;;;;;16.05;5.53;;;21.00;72.10;;;;;;5034429;28;20048;-73
2021/05/24 04:59:40;;;;;;;19.00;5.70;;;21.00;71.90;;;;;;5034616;28;20041;-69
2021/05/24 05:02:06;;;;;;;17.83;5.72;;;21.00;72.10;;;;;;5034479;28;20009;-72
2021/05/24 05:04:32;;;;;;;15.63;5.88;;;21.00;71.80;;;;;;5034457;28;20030;-70
2021/05/24 05:06:58;;;;;;;18.75;6.05;;;21.00;72.00;;;;;;5034159;28;20029;-70
2021/05/24 05:09:27;;;;;;;19.70;5.93;;;21.10;71.90;;;;;;5034255;28;20032;-69
2021/05/24 05:11:54;;;;;;;16.73;5.82;;;21.00;71.80;;;;;;5034085;28;20506;-69
2021/05/24 05:14:20;;;;;;;14.98;4.78;;;21.00;71.50;;;;;;5034309;28;20040;-72
2021/05/24 05:16:46;;;;;;;18.73;6.22;;;21.10;71.50;;;;;;5034540;28;20032;-70
2021/05/24 05:19:12;;;;;;;15.48;4.68;;;21.10;71.60;;;;;;5034213;28;20049;-71
2021/05/24 05:21:38;;;;;;;12.48;3.92;;;21.20;70.90;;;;;;5034587;28;20104;-69
2021/05/24 05:24:04;;;;;;;16.77;4.75;;;21.30;69.80;;;;;;5034204;28;20038;-69
2021/05/24 05:26:30;;;;;;;12.35;4.18;;;21.40;68.80;;;;;;5034073;28;20040;-69
2021/05/24 05:28:56;;;;;;;19.48;6.07;;;21.50;68.40;;;;;;5033940;28;20104;-69
2021/05/24 05:31:24;;;;;;;17.08;6.03;;;21.50;68.30;;;;;;5033657;28;20083;-70
2021/05/24 05:33:50;;;;;;;21.30;5.45;;;21.50;68.70;;;;;;5033864;28;20097;-69
2021/05/24 05:36:15;;;;;;;19.70;5.68;;;21.60;68.70;;;;;;5033843;28;20056;-72
2021/05/24 05:38:41;;;;;;;16.10;5.35;;;21.70;68.60;;;;;;5033742;28;20030;-71
2021/05/24 05:41:07;;;;;;;18.08;5.05;;;21.70;68.50;;;;;;5033485;28;20402;-68
2021/05/24 05:43:33;;;;;;;17.88;5.80;;;21.80;67.70;;;;;;5033704;28;20025;-70
2021/05/24 05:45:58;;;;;;;17.52;5.40;;;21.90;67.80;;;;;;5033432;28;20025;-69
2021/05/24 05:48:24;;;;;;;16.85;5.43;;;22.00;67.50;;;;;;5033277;28;20044;-69
2021/05/24 05:50:50;;;;;;;16.80;5.25;;;22.10;67.50;;;;;;5033592;28;20021;-70
2021/05/24 05:53:16;;;;;;;22.15;6.57;;;22.10;67.30;;;;;;5031882;28;20022;-69
2021/05/24 05:55:41;;;;;;;21.10;5.95;;;22.00;67.20;;;;;;5031774;28;20033;-69
2021/05/24 05:58:07;;;;;;;22.38;5.75;;;22.00;66.80;;;;;;5031658;28;20308;-70
2021/05/24 06:00:33;;;;;;;17.75;5.57;;;22.00;66.90;;;;;;5033001;28;20371;-70
2021/05/24 06:02:59;;;;;;;22.30;6.25;;;21.90;67.20;;;;;;5033250;28;20033;-70
2021/05/24 06:05:25;;;;;;;22.35;6.55;;;21.90;67.20;;;;;;5031233;28;20025;-69
2021/05/24 06:07:52;;;;;;;21.55;6.70;;;21.80;67.40;;;;;;5015407;28;20474;-66
2021/05/24 06:10:19;;;;;;;15.25;5.97;;;21.90;67.70;;;;;;5033412;28;20505;-67
2021/05/24 06:12:47;;;;;;;16.58;5.20;;;21.90;67.50;;;;;;5033258;28;20029;-64
2021/05/24 06:15:16;;;;;;;17.95;5.80;;;21.90;67.20;;;;;;5033060;28;20037;-62
2021/05/24 06:17:42;;;;;;;16.75;5.57;;;22.00;66.90;;;;;;5033216;28;20053;-66
2021/05/24 06:20:13;;;;;;;19.13;6.03;;;22.00;66.90;;;;;;5032973;28;20042;-66
2021/05/24 06:22:40;;;;;;;21.90;6.13;;;22.00;66.90;;;;;;5033000;28;20029;-63
2021/05/24 06:25:09;;;;;;;24.17;5.63;;;22.10;66.80;;;;;;5032788;28;20136;-64
2021/05/24 06:27:37;;;;;;;18.55;5.68;;;22.10;66.30;;;;;;5033405;28;20387;-64
2021/05/24 06:30:06;;;;;;;33.33;6.15;;;22.20;66.10;;;;;;5032161;28;20036;-65
2021/05/24 06:32:33;;;;;;;20.75;6.35;;;22.30;66.00;;;;;;5033711;28;20030;-82
2021/05/24 06:35:00;;;;;;;22.38;6.82;;;22.30;66.10;;;;;;5033207;28;20108;-65
2021/05/24 06:37:25;;;;;;;25.85;6.03;;;22.40;66.00;;;;;;5032239;28;20041;-64
2021/05/24 06:39:51;;;;;;;16.60;5.07;;;22.40;65.50;;;;;;5033179;28;20034;-69
2021/05/24 06:42:17;;;;;;;18.48;5.45;;;22.50;65.40;;;;;;5034562;28;20060;-67
2021/05/24 06:44:44;;;;;;;23.60;5.95;;;22.60;65.40;;;;;;5034133;28;20025;-66
2021/05/24 06:47:11;;;;;;;35.85;5.72;;;22.70;65.10;;;;;;5032902;28;20029;-73
2021/05/24 06:49:37;;;;;;;25.35;5.45;;;22.90;64.40;;;;;;5033035;28;20478;-64
2021/05/24 06:52:05;;;;;;;15.05;5.57;;;23.00;64.60;;;;;;5033180;28;20022;-62
2021/05/24 06:54:33;;;;;;;17.33;5.63;;;23.20;64.00;;;;;;5032886;28;20478;-76
2021/05/24 06:57:03;;;;;;;16.75;4.95;;;23.30;63.80;;;;;;5032971;28;20022;-66
2021/05/24 06:59:35;;;;;;;23.95;5.78;;;23.40;64.00;;;;;;5033137;28;20124;-64
2021/05/24 07:02:01;;;;;;;22.50;6.60;;;23.40;63.60;;;;;;5031366;28;20084;-79
2021/05/24 07:04:28;;;;;;;22.08;5.75;;;23.40;63.90;;;;;;5032830;28;20034;-64
2021/05/24 07:06:54;;;;;;;23.40;5.15;;;23.40;63.70;;;;;;5031603;28;20006;-67
2021/05/24 07:09:20;;;;;;;22.33;5.80;;;23.40;63.70;;;;;;5031894;28;20135;-68
2021/05/24 07:11:46;;;;;;;25.67;5.50;;;23.40;63.40;;;;;;5032899;28;20026;-64
2021/05/24 07:14:12;;;;;;;20.45;5.40;;;23.50;63.40;;;;;;5032769;28;20028;-64
2021/05/24 07:16:37;;;;;;;28.08;5.75;;;23.60;63.60;;;;;;5032518;28;20025;-66
2021/05/24 07:19:03;;;;;;;25.85;6.00;;;23.70;63.10;;;;;;5035979;28;20460;-64
2021/05/24 07:21:29;;;;;;;24.85;6.18;;;23.90;62.80;;;;;;5035936;28;20569;-64
2021/05/24 07:23:56;;;;;;;26.70;6.50;;;24.00;62.40;;;;;;5036153;28;20108;-65
2021/05/24 07:26:24;;;;;;;21.48;6.32;;;24.10;62.90;;;;;;5035746;28;20022;-64
2021/05/24 07:28:49;;;;;;;19.88;5.53;;;24.20;61.90;;;;;;5035850;28;20418;-68
2021/05/24 07:31:15;;;;;;;22.85;5.28;;;24.20;60.90;;;;;;5018592;28;20025;-66
2021/05/24 07:33:44;;;;;;;19.33;4.75;;;24.30;60.80;;;;;;5036513;28;20032;-70
2021/05/24 07:36:10;;;;;;;20.38;5.00;;;24.50;60.50;;;;;;5035982;28;20022;-69
2021/05/24 07:38:37;;;;;;;21.98;5.25;;;24.70;59.40;;;;;;5036350;28;20041;-65
2021/05/24 07:41:03;;;;;;;20.10;4.88;;;24.80;59.10;;;;;;5036109;28;20037;-73
2021/05/24 07:43:28;;;;;;;29.83;6.63;;;25.10;58.30;;;;;;5034654;28;20033;-67
2021/05/24 07:45:56;;;;;;;14.43;4.90;;;25.20;57.90;;;;;;5036162;28;20492;-65
2021/05/24 07:48:22;;;;;;;19.40;5.47;;;25.30;57.30;;;;;;5034373;28;20060;-64
2021/05/24 07:50:47;;;;;;;19.60;5.57;;;25.60;57.00;;;;;;5035847;28;20069;-68
2021/05/24 07:53:14;;;;;;;21.85;5.43;;;25.90;56.80;;;;;;5035598;28;20105;-65
2021/05/24 07:55:39;;;;;;;21.92;4.97;;;26.10;56.20;;;;;;5035714;28;20028;-63
2021/05/24 07:58:06;;;;;;;22.73;5.95;;;26.20;56.40;;;;;;5035520;28;20116;-71
2021/05/24 08:00:32;;;;;;;20.85;6.00;;;26.30;56.40;;;;;;5035369;28;20072;-65
2021/05/24 08:02:58;;;;;;;19.88;6.03;;;26.30;56.80;;;;;;5035965;28;20021;-66
2021/05/24 08:05:24;;;;;;;21.52;5.57;;;26.30;57.20;;;;;;5036631;28;20030;-64
2021/05/24 08:07:51;;;;;;;22.40;6.47;;;26.20;57.30;;;;;;5037694;28;20379;-64
2021/05/24 08:10:17;;;;;;;26.45;5.97;;;26.10;57.10;;;;;;5036671;28;20025;-64
2021/05/24 08:12:44;;;;;;;17.08;5.32;;;26.20;57.20;;;;;;5036742;28;20026;-65
2021/05/24 08:15:18;;;;;;;21.98;5.72;;;26.30;57.00;;;;;;5036974;28;20037;-64
2021/05/24 08:17:45;;;;;;;19.33;5.50;;;26.40;56.40;;;;;;5036753;28;20049;-78
2021/05/24 08:20:12;;;;;;;18.15;5.20;;;26.40;55.50;;;;;;5035579;28;20039;-67
2021/05/24 08:22:38;;;;;;;24.30;5.85;;;26.40;54.90;;;;;;5035140;28;20492;-68
2021/05/24 08:25:06;;;;;;;16.45;5.15;;;26.50;54.10;;;;;;5037701;28;20096;-69
2021/05/24 08:27:32;;;;;;;20.38;4.38;;;26.50;53.30;;;;;;5035206;28;20019;-69
2021/05/24 08:29:57;;;;;;;16.05;4.50;;;26.60;53.20;;;;;;5035167;28;20029;-68
2021/05/24 08:32:23;;;;;;;17.20;4.28;;;26.70;52.70;;;;;;5036011;28;20025;-69
2021/05/24 08:34:49;;;;;;;15.32;4.30;;;26.80;51.30;;;;;;5035740;28;20033;-79
2021/05/24 08:37:14;;;;;;;13.57;3.85;;;26.80;50.40;;;;;;5035106;28;20026;-69
2021/05/24 08:39:42;;;;;;;13.45;4.00;;;26.80;50.30;;;;;;5036201;28;20056;-65
2021/05/24 08:42:08;;;;;;;16.13;3.83;;;26.90;49.50;;;;;;5034906;28;20051;-73
2021/05/24 08:44:37;;;;;;;16.30;4.60;;;26.90;49.60;;;;;;5033351;28;20029;-75
2021/05/24 08:47:04;;;;;;;15.27;4.15;;;27.00;49.50;;;;;;5034644;28;20056;-72
2021/05/24 08:49:30;;;;;;;20.23;4.53;;;27.00;49.80;;;;;;5034781;28;20029;-74
2021/05/24 08:51:57;;;;;;;18.52;4.38;;;27.00;49.70;;;;;;5034913;28;20025;-72
2021/05/24 08:54:24;;;;;;;12.35;4.00;;;27.00;49.30;;;;;;5034715;28;20029;-71
2021/05/24 08:56:50;;;;;;;13.80;3.75;;;27.10;48.80;;;;;;5034645;28;20520;-72
2021/05/24 08:59:15;;;;;;;11.18;3.28;;;27.10;47.90;;;;;;5034780;28;20474;-69
2021/05/24 09:01:41;;;;;;;11.20;3.40;;;27.10;47.90;;;;;;5034409;28;20026;-69
2021/05/24 09:04:07;;;;;;;11.50;3.15;;;27.10;47.50;;;;;;5034636;28;20427;-68
2021/05/24 09:06:42;;;;;;;10.52;3.05;;;27.10;47.30;;;;;;5034180;28;20017;-67
2021/05/24 09:09:08;;;;;;;13.68;3.28;;;27.10;45.70;;;;;;5033928;28;20059;-67
2021/05/24 09:11:34;;;;;;;22.85;3.90;;;27.10;46.80;;;;;;5034717;28;20060;-70
2021/05/24 09:14:00;;;;;;;11.70;3.83;;;27.20;46.80;;;;;;5034116;28;20029;-69
2021/05/24 09:16:31;;;;;;;14.48;3.47;;;27.20;46.80;;;;;;5034178;28;20024;-68
2021/05/24 09:19:17;;;;;;;12.57;3.60;;;27.20;47.00;;;;;;5033854;28;20042;-66
2021/05/24 09:21:58;;;;;;;15.13;3.97;;;27.30;45.80;;;;;;5034179;28;20362;-70
2021/05/24 09:24:29;;;;;;;12.63;3.58;;;27.30;47.10;;;;;;5034034;28;20030;-68
2021/05/24 09:26:57;;;;;;;19.55;4.30;;;27.30;47.00;;;;;;5033806;28;20079;-71
2021/05/24 09:29:24;;;;;;;17.70;3.42;;;27.30;46.90;;;;;;5033639;28;20034;-70
2021/05/24 09:32:14;;;;;;;17.42;3.67;;;27.40;46.50;;;;;;5032610;28;20029;-69
2021/05/24 09:34:41;;;;;;;14.85;3.13;;;27.40;46.40;;;;;;5033525;28;20044;-68
2021/05/24 09:37:09;;;;;;;12.90;3.80;;;27.50;45.90;;;;;;5033894;28;20018;-68
2021/05/24 09:39:36;;;;;;;17.02;3.92;;;27.50;44.60;;;;;;5031791;28;20131;-69
2021/05/24 09:42:11;;;;;;;12.07;3.05;;;27.60;43.30;;;;;;5033701;28;20374;-68
2021/05/24 09:44:53;;;;;;;16.35;3.40;;;27.70;41.10;;;;;;5033937;28;20037;-70
2021/05/24 09:47:36;;;;;;;14.88;3.08;;;27.80;41.60;;;;;;5033671;28;20029;-68
2021/05/24 09:50:17;;;;;;;13.07;3.37;;;27.90;40.20;;;;;;5033347;28;20025;-70
2021/05/24 09:52:44;;;;;;;12.52;3.03;;;28.00;40.20;;;;;;5034013;28;20104;-69
2021/05/24 09:55:31;;;;;;;14.80;3.10;;;28.10;38.80;;;;;;5033151;28;20026;-69
2021/05/24 09:57:57;;;;;;;13.77;3.20;;;28.20;38.20;;;;;;5033496;28;20029;-70
2021/05/24 10:00:38;;;;;;;10.05;3.13;;;28.20;38.00;;;;;;5033095;28;20102;-67
2021/05/24 10:03:07;;;;;;;20.42;3.60;;;28.20;37.50;;;;;;5033088;28;20022;-67
2021/05/24 10:05:43;;;;;;;10.98;2.70;;;28.30;37.80;;;;;;5033132;28;20029;-70
2021/05/24 10:08:09;;;;;;;13.07;2.58;;;28.20;36.60;;;;;;5033118;28;20029;-68
2021/05/24 10:10:37;;;;;;;13.27;2.80;;;28.30;36.20;;;;;;5033231;28;20045;-72
2021/05/24 10:13:06;;;;;;;9.20;2.60;;;28.30;35.70;;;;;;5033784;28;20017;-71
2021/05/24 10:15:36;;;;;;;9.95;2.10;;;28.40;36.30;;;;;;5016200;28;20033;-67
2021/05/24 10:18:02;;;;;;;11.30;2.65;;;28.40;35.90;;;;;;5031399;28;20063;-68
2021/05/24 10:20:30;;;;;;;10.77;2.38;;;28.50;34.90;;;;;;5032817;28;20030;-75
2021/05/24 10:22:57;;;;;;;14.00;2.30;;;28.50;34.80;;;;;;5033373;28;20030;-67
2021/05/24 10:25:23;;;;;;;12.15;2.30;;;28.50;33.70;;;;;;5033321;28;20022;-69
2021/05/24 10:27:51;;;;;;;8.65;2.10;;;28.60;33.90;;;;;;5033417;28;20030;-68
2021/05/24 10:30:18;;;;;;;10.88;2.15;;;28.60;33.80;;;;;;5033040;28;20076;-70
2021/05/24 10:32:56;;;;;;;7.78;2.20;;;28.70;34.20;;;;;;5031420;28;20035;-68
2021/05/24 10:35:39;;;;;;;10.52;2.63;;;28.80;34.00;;;;;;5033041;28;20014;-68
2021/05/24 10:38:28;;;;;;;14.18;2.45;;;28.80;34.00;;;;;;5032841;28;20057;-69
2021/05/24 10:41:40;;;;;;;9.68;3.25;;;28.80;34.60;;;;;;5032625;28;20095;-70
2021/05/24 10:44:09;;;;;;;9.15;3.03;;;28.80;34.10;;;;;;5014040;28;20038;-78
2021/05/24 10:46:36;;;;;;;11.20;2.55;;;28.90;35.20;;;;;;5032666;28;20482;-75
2021/05/24 10:49:12;;;;;;;12.00;3.13;;;29.10;35.80;;;;;;5033134;28;20184;-69
2021/05/24 10:51:49;;;;;;;10.40;3.30;;;29.20;36.10;;;;;;5034061;28;20030;-75
2021/05/24 10:54:21;;;;;;;12.98;3.13;;;29.20;36.30;;;;;;5036595;28;20091;-69
2021/05/24 10:57:00;;;;;;;8.65;2.45;;;29.10;37.10;;;;;;5036695;28;20021;-67
2021/05/24 10:59:40;;;;;;;9.75;2.70;;;29.00;37.60;;;;;;5035351;28;20485;-68
2021/05/24 11:02:11;;;;;;;12.30;2.85;;;29.10;36.90;;;;;;5036593;28;20088;-74
2021/05/24 11:04:51;;;;;;;13.57;3.20;;;29.10;36.90;;;;;;5036596;28;20107;-69
2021/05/24 11:07:32;;;;;;;13.52;2.90;;;29.30;36.40;;;;;;5036488;28;20034;-69
2021/05/24 11:10:17;;;;;;;10.00;3.38;;;29.40;35.90;;;;;;5036603;28;20029;-67
2021/05/24 11:13:09;;;;;;;12.02;2.30;;;29.60;35.10;;;;;;5036406;28;20090;-67
2021/05/24 11:15:38;;;;;;;14.50;2.30;;;29.70;34.40;;;;;;5036740;28;20025;-68
2021/05/24 11:18:07;;;;;;;14.88;2.78;;;29.80;34.10;;;;;;5036411;28;20049;-69
2021/05/24 11:20:37;;;;;;;13.73;2.67;;;29.90;33.60;;;;;;5035076;28;20060;-70
2021/05/24 11:25:56;;;;;;;11.15;2.35;;;30.10;33.20;;;;;;5036305;28;20084;-71
2021/05/24 11:28:34;;;;;;;12.13;3.00;;;30.00;33.10;;;;;;5036240;28;20033;-68
2021/05/24 11:31:16;;;;;;;13.55;2.35;;;30.00;33.10;;;;;;5036242;28;20045;-70
2021/05/24 11:33:51;;;;;;;15.82;2.75;;;30.00;33.80;;;;;;5036118;28;20136;-71
2021/05/24 11:36:27;;;;;;;17.88;2.75;;;30.00;34.10;;;;;;5035959;28;20037;-70
2021/05/24 11:39:02;;;;;;;16.17;3.58;;;30.00;34.20;;;;;;5036053;28;20068;-69
2021/05/24 11:41:30;;;;;;;17.25;3.00;;;30.00;34.00;;;;;;5034578;28;20030;-68
2021/05/24 11:43:56;;;;;;;20.05;3.70;;;30.00;33.90;;;;;;5034505;28;20033;-66
2021/05/24 11:46:23;;;;;;;16.17;3.75;;;30.00;34.10;;;;;;5035822;28;20025;-70
2021/05/24 11:48:50;;;;;;;21.85;3.35;;;30.00;34.40;;;;;;5034349;28;20501;-69
2021/05/24 11:51:18;;;;;;;20.05;2.90;;;30.00;34.30;;;;;;5034548;28;20025;-69
2021/05/24 11:54:13;;;;;;;15.00;2.80;;;30.10;34.10;;;;;;5035688;28;20014;-68
2021/05/24 11:56:49;;;;;;;17.63;3.03;;;30.10;33.90;;;;;;5026622;28;20042;-68
2021/05/24 11:59:17;;;;;;;20.00;2.95;;;30.10;34.40;;;;;;5035459;28;20037;-70
2021/05/24 12:01:46;;;;;;;20.23;3.20;;;30.10;34.40;;;;;;5035696;28;20351;-66
2021/05/24 12:04:24;;;;;;;19.58;3.10;;;30.00;34.60;;;;;;5035155;28;20562;-67
2021/05/24 12:06:59;;;;;;;18.65;3.45;;;29.90;34.70;;;;;;5034140;28;20472;-68
2021/05/24 12:09:55;;;;;;;17.92;2.85;;;29.80;34.20;;;;;;5035585;28;20032;-69
2021/05/24 12:12:22;;;;;;;12.38;2.97;;;29.70;33.90;;;;;;5034248;28;20018;-67
2021/05/24 12:14:59;;;;;;;15.80;3.08;;;29.70;33.80;;;;;;5035292;28;20021;-68
2021/05/24 12:17:28;;;;;;;14.77;2.35;;;29.80;33.90;;;;;;5034817;28;20038;-71
2021/05/24 12:19:55;;;;;;;20.17;3.70;;;29.80;34.20;;;;;;5034838;28;20479;-68
2021/05/24 12:22:23;;;;;;;15.88;3.10;;;29.90;33.70;;;;;;5035220;28;20129;-66
2021/05/24 12:24:50;;;;;;;15.85;2.22;;;30.10;33.10;;;;;;5034904;28;20051;-65
2021/05/24 12:27:18;;;;;;;10.10;2.67;;;30.10;31.70;;;;;;5034944;28;20022;-65
2021/05/24 12:29:53;;;;;;;14.73;2.70;;;30.10;31.10;;;;;;5033565;28;20056;-67
2021/05/24 12:32:32;;;;;;;14.25;2.13;;;30.10;30.80;;;;;;5034904;28;20018;-70
2021/05/24 12:34:59;;;;;;;11.52;2.20;;;30.10;30.90;;;;;;5034820;28;20382;-69
2021/05/24 12:37:26;;;;;;;14.75;2.55;;;30.10;29.90;;;;;;5034596;28;20049;-67
2021/05/24 12:39:54;;;;;;;13.15;2.33;;;30.00;30.60;;;;;;5034561;28;20386;-68
2021/05/24 12:42:20;;;;;;;12.93;2.30;;;30.00;30.60;;;;;;5034586;28;20037;-68
2021/05/24 12:44:46;;;;;;;15.52;2.97;;;29.90;30.60;;;;;;5034600;28;20067;-68
2021/05/24 12:47:19;;;;;;;17.33;3.08;;;29.80;30.60;;;;;;5034647;28;20033;-66